Pagina principale
METAR-TAF:

METAR-TAF

Aeroporti :

Varsavia, Polonia

Aeroporto di Varsavia-Chopin

latitudine: 52-10N, longitudine: 020-58E, altezza: 106 m

Osservazione

Il bollettino è stato emesso 20 minuti fa, alle 13:30 UTC
Vento 15 kt da nord/nord-est
Temperature -5°C
Umidità 53%
Pressione 1025 hPa
Visibilità 10 km o più
Poco nuvoloso ad un'altezza di 2600 ft

METAR: EPWA 241330Z 02015KT 9999 FEW026 M05/M13 Q1025 R33/2///95 NOSIG

Ora: 14:50 (13:50 UTC)

Previsione

Il bollettino è stato emesso 2 ore e 20 minuti fa, alle 11:30 UTC
Previsione valida dal 24 alle 12 UTC al 25 alle 12 UTC
Vento 12 kt da nord-est
Visibilità 10 km o più
Nubi sparse ad un'altezza di 2500 ft
Probabilità 40% :
Temporaneamente
dal 24 alle 12 UTC al 24 alle 15 UTC
Vento 16 kt da nord-est con raffiche fino a 26 kt

TAF: EPWA 241130Z 2412/2512 04012KT 9999 SCT025 PROB40 TEMPO 2412/2415 05016G26KT

Osservazioni e previsioni meteorologiche di più di 4000 aeroporti (messaggi METAR e TAF).

Le stazioni disponibili sono rappresentate dai dischi gialli e rossi sulla carta.

Puntare il mouse per vedere il nome della stazione.

Clicca sopra per visualizzare le osservazioni e previsioni meteorologiche.

Per cambiare la mappa : fare clic sui pulsanti verdi con una croce nera per ingrandire, il pulsante verde con un trattino per diminuire, o sulla freccia verde per le mappe adiacenti.


METAR-TAF: